createdAt,value
2022-11-29T00:01:32.996Z,5.19
2022-11-29T00:04:01.487Z,5.16
2022-11-29T00:06:31.749Z,5.21
2022-11-29T00:09:07.522Z,5.20
2022-11-29T00:11:57.728Z,5.18
2022-11-29T00:14:27.281Z,5.11
2022-11-29T00:16:57.022Z,5.15
2022-11-29T00:19:24.199Z,5.15
2022-11-29T00:21:51.654Z,5.16
2022-11-29T00:24:18.969Z,5.12
2022-11-29T00:26:46.024Z,5.09
2022-11-29T00:29:13.778Z,5.05
2022-11-29T00:31:41.412Z,5.01
2022-11-29T00:34:09.854Z,5.02
2022-11-29T00:36:37.083Z,5.02
2022-11-29T00:39:05.233Z,5.00
2022-11-29T00:41:32.710Z,5.00
2022-11-29T00:43:59.600Z,5.03
2022-11-29T00:46:26.618Z,5.02
2022-11-29T00:48:53.598Z,5.01
2022-11-29T00:51:20.440Z,5.05
2022-11-29T00:53:47.486Z,5.02
2022-11-29T00:56:14.398Z,4.99
2022-11-29T00:58:43.632Z,4.95
2022-11-29T01:01:12.066Z,4.92
2022-11-29T01:03:39.358Z,4.96
2022-11-29T01:06:08.965Z,4.96
2022-11-29T01:08:36.047Z,4.98
2022-11-29T01:11:07.571Z,4.92
2022-11-29T01:13:35.708Z,4.95
2022-11-29T01:16:04.288Z,5.01
2022-11-29T01:18:32.054Z,4.99
2022-11-29T01:21:11.973Z,4.99
2022-11-29T01:23:40.059Z,4.99
2022-11-29T01:26:11.901Z,5.01
2022-11-29T01:28:39.924Z,5.00
2022-11-29T01:31:19.033Z,4.98
2022-11-29T01:33:46.509Z,4.95
2022-11-29T01:36:14.979Z,4.99
2022-11-29T01:38:45.178Z,4.96
2022-11-29T01:41:18.766Z,4.96
2022-11-29T01:44:03.880Z,4.98
2022-11-29T01:46:39.470Z,5.00
2022-11-29T01:49:09.212Z,4.92
2022-11-29T01:51:39.399Z,4.93
2022-11-29T01:54:08.348Z,4.96
2022-11-29T01:56:36.236Z,4.92
2022-11-29T01:59:06.569Z,4.97
2022-11-29T02:01:34.826Z,4.96
2022-11-29T02:04:02.121Z,4.90
2022-11-29T02:06:31.028Z,4.89
2022-11-29T02:08:58.053Z,4.89
2022-11-29T02:12:04.249Z,4.86
2022-11-29T02:14:45.333Z,4.82
2022-11-29T02:17:47.077Z,4.79
2022-11-29T02:20:25.712Z,4.74
2022-11-29T02:23:20.493Z,4.69
2022-11-29T02:26:11.645Z,4.73
2022-11-29T02:28:57.126Z,4.74
2022-11-29T02:32:02.775Z,4.71
2022-11-29T02:34:29.777Z,4.67
2022-11-29T02:37:36.966Z,4.67
2022-11-29T02:40:25.863Z,4.63
2022-11-29T02:43:15.487Z,4.64
2022-11-29T02:45:58.996Z,4.64
2022-11-29T02:48:44.138Z,4.67
2022-11-29T02:51:48.438Z,4.65
2022-11-29T02:54:28.433Z,4.60
2022-11-29T02:57:24.556Z,4.60
2022-11-29T03:00:02.829Z,4.62
2022-11-29T03:02:43.395Z,4.57
2022-11-29T03:05:10.323Z,4.62
2022-11-29T03:08:15.767Z,4.62
2022-11-29T03:11:10.576Z,4.63
2022-11-29T03:13:59.135Z,4.65
2022-11-29T03:16:58.254Z,4.63
2022-11-29T03:19:46.839Z,4.62
2022-11-29T03:22:33.528Z,4.63
2022-11-29T03:25:09.343Z,4.61
2022-11-29T03:27:48.510Z,4.68
2022-11-29T03:30:19.131Z,4.69
2022-11-29T03:32:46.016Z,4.68
2022-11-29T03:35:42.887Z,4.64
2022-11-29T03:38:49.054Z,4.64
2022-11-29T03:41:47.139Z,4.63
2022-11-29T03:44:27.895Z,4.60
2022-11-29T03:47:06.732Z,4.60
2022-11-29T03:49:48.900Z,4.57
2022-11-29T03:52:34.088Z,4.52
2022-11-29T03:55:13.146Z,4.60
2022-11-29T03:57:45.847Z,4.58
2022-11-29T04:00:13.891Z,4.57
2022-11-29T04:02:56.136Z,4.58
2022-11-29T04:05:42.093Z,4.57
2022-11-29T04:08:18.230Z,4.58
2022-11-29T04:11:22.147Z,4.59
2022-11-29T04:13:57.186Z,4.61
2022-11-29T04:16:27.138Z,4.61
2022-11-29T04:19:35.616Z,4.63
2022-11-29T04:22:21.098Z,4.60
2022-11-29T04:25:19.288Z,4.51
2022-11-29T04:28:11.686Z,4.51
2022-11-29T04:31:02.031Z,4.53
2022-11-29T04:34:07.205Z,4.45
2022-11-29T04:37:09.760Z,4.45
2022-11-29T04:39:55.245Z,4.49
2022-11-29T04:43:03.616Z,4.51
2022-11-29T04:45:56.292Z,4.55
2022-11-29T04:48:38.378Z,4.52
2022-11-29T04:51:25.321Z,4.51
2022-11-29T04:53:57.185Z,4.54
2022-11-29T04:56:41.375Z,4.59
2022-11-29T04:59:32.360Z,4.58
2022-11-29T05:02:11.106Z,4.60
2022-11-29T05:04:59.292Z,4.62
2022-11-29T05:08:00.172Z,4.61
2022-11-29T05:10:45.147Z,4.66
2022-11-29T05:13:34.331Z,4.64
2022-11-29T05:16:07.687Z,4.66
2022-11-29T05:18:59.379Z,4.65
2022-11-29T05:21:51.072Z,4.62
2022-11-29T05:24:28.622Z,4.57
2022-11-29T05:27:24.517Z,4.53
2022-11-29T05:30:07.728Z,4.55
2022-11-29T05:32:37.618Z,4.55
2022-11-29T05:35:57.355Z,4.58
2022-11-29T05:38:32.406Z,4.61
2022-11-29T05:41:27.318Z,4.56
2022-11-29T05:44:09.308Z,4.55
2022-11-29T05:47:04.830Z,4.61
2022-11-29T05:49:58.024Z,4.61
2022-11-29T05:52:30.919Z,4.61
2022-11-29T05:55:25.948Z,4.61
2022-11-29T05:57:52.888Z,4.60
2022-11-29T06:00:20.566Z,4.61
2022-11-29T06:03:03.945Z,4.61
2022-11-29T06:05:46.965Z,4.60
2022-11-29T06:08:18.629Z,4.57
2022-11-29T06:11:01.598Z,4.61
2022-11-29T06:13:54.685Z,4.59
2022-11-29T06:16:57.140Z,4.58
2022-11-29T06:19:43.810Z,4.58
2022-11-29T06:22:29.507Z,4.57
2022-11-29T06:25:12.488Z,4.61
2022-11-29T06:27:48.334Z,4.61
2022-11-29T06:30:21.023Z,4.61
2022-11-29T06:33:10.377Z,4.60
2022-11-29T06:36:00.690Z,4.60
2022-11-29T06:38:30.561Z,4.57
2022-11-29T06:41:02.221Z,4.49
2022-11-29T06:43:30.478Z,4.46
2022-11-29T06:46:00.270Z,4.41
2022-11-29T06:48:30.720Z,4.31
2022-11-29T06:51:07.848Z,4.40
2022-11-29T06:53:52.578Z,4.43
2022-11-29T06:56:22.484Z,4.49
2022-11-29T06:59:22.058Z,4.55
2022-11-29T07:02:02.856Z,4.57
2022-11-29T07:04:33.499Z,4.59
2022-11-29T07:07:00.809Z,4.62
2022-11-29T07:09:33.897Z,4.64
2022-11-29T07:12:01.179Z,4.67
2022-11-29T07:14:28.489Z,4.71
2022-11-29T07:17:42.709Z,4.70
2022-11-29T07:20:32.786Z,4.69
2022-11-29T07:23:22.305Z,4.65
2022-11-29T07:25:51.993Z,4.55
2022-11-29T07:28:26.444Z,4.50
2022-11-29T07:31:10.824Z,4.51
2022-11-29T07:33:47.026Z,4.60
2022-11-29T07:36:16.771Z,4.58
2022-11-29T07:39:08.206Z,4.57
2022-11-29T07:41:51.374Z,4.56
2022-11-29T07:44:37.277Z,4.48
2022-11-29T07:47:04.356Z,4.42
2022-11-29T07:49:31.329Z,4.44
2022-11-29T07:51:58.419Z,4.48
2022-11-29T07:54:25.665Z,4.57
2022-11-29T07:56:52.869Z,4.62
2022-11-29T07:59:20.299Z,4.69
2022-11-29T08:01:47.678Z,4.70
2022-11-29T08:04:15.757Z,4.77
2022-11-29T08:06:42.841Z,4.80
2022-11-29T08:09:10.503Z,4.81
2022-11-29T08:11:39.507Z,4.82
2022-11-29T08:14:06.603Z,4.87
2022-11-29T08:16:33.778Z,4.90
2022-11-29T08:19:00.856Z,4.95
2022-11-29T08:21:27.856Z,5.00
2022-11-29T08:23:55.258Z,5.06
2022-11-29T08:26:26.873Z,5.14
2022-11-29T08:28:58.182Z,5.20
2022-11-29T08:31:25.112Z,5.27
2022-11-29T08:33:52.240Z,5.24
2022-11-29T08:36:20.475Z,5.23
2022-11-29T08:38:48.237Z,5.15
2022-11-29T08:41:17.113Z,5.15
2022-11-29T08:43:45.026Z,5.23
2022-11-29T08:46:16.930Z,5.31
2022-11-29T08:48:45.242Z,5.34
2022-11-29T08:51:12.317Z,5.28
2022-11-29T08:53:43.330Z,5.35
2022-11-29T08:57:10.165Z,5.34
2022-11-29T08:59:08.497Z,5.31
2022-11-29T09:01:35.637Z,5.26
2022-11-29T09:04:03.231Z,5.12
2022-11-29T09:06:38.096Z,5.01
2022-11-29T09:09:05.672Z,5.04
2022-11-29T09:11:34.339Z,5.01
2022-11-29T09:14:05.459Z,5.02
2022-11-29T09:16:36.533Z,5.10
2022-11-29T09:19:05.591Z,5.11
2022-11-29T09:21:36.777Z,5.11
2022-11-29T09:24:06.651Z,5.05
2022-11-29T09:26:36.337Z,5.00
2022-11-29T09:29:05.646Z,4.98
2022-11-29T09:31:33.842Z,5.01
2022-11-29T09:34:01.220Z,4.91
2022-11-29T09:36:29.987Z,4.86
2022-11-29T09:39:05.203Z,4.92
2022-11-29T09:41:54.143Z,4.98
2022-11-29T09:44:27.061Z,5.06
2022-11-29T09:47:22.559Z,5.16
2022-11-29T09:49:58.320Z,5.26
2022-11-29T09:52:41.985Z,5.23
2022-11-29T09:55:23.889Z,5.27
2022-11-29T09:57:53.937Z,5.18
2022-11-29T10:00:21.209Z,5.12
2022-11-29T10:02:54.351Z,5.15
2022-11-29T10:05:39.097Z,5.10
2022-11-29T10:08:19.816Z,5.11
2022-11-29T10:10:49.478Z,5.10
2022-11-29T10:13:25.507Z,5.10
2022-11-29T10:16:01.868Z,5.10
2022-11-29T10:18:34.860Z,5.15
2022-11-29T10:21:29.716Z,5.28
2022-11-29T10:24:01.968Z,5.39
2022-11-29T10:26:34.802Z,5.45
2022-11-29T10:29:02.459Z,5.50
2022-11-29T10:31:35.152Z,5.63
2022-11-29T10:34:12.759Z,5.70
2022-11-29T10:36:59.870Z,5.80
2022-11-29T10:39:46.247Z,5.82
2022-11-29T10:42:35.462Z,5.87
2022-11-29T10:45:05.057Z,5.98
2022-11-29T10:47:32.426Z,6.12
2022-11-29T10:49:59.889Z,6.21
2022-11-29T10:52:27.063Z,6.20
2022-11-29T10:54:59.735Z,6.26
2022-11-29T10:57:27.619Z,6.35
2022-11-29T11:00:00.739Z,6.47
2022-11-29T11:02:28.843Z,6.64
2022-11-29T11:04:56.527Z,6.72
2022-11-29T11:07:36.140Z,6.75
2022-11-29T11:10:22.193Z,6.69
2022-11-29T11:13:08.267Z,6.68
2022-11-29T11:15:35.466Z,6.67
2022-11-29T11:18:07.309Z,6.76
2022-11-29T11:20:40.119Z,6.79
2022-11-29T11:23:28.880Z,6.82
2022-11-29T11:26:11.997Z,6.90
2022-11-29T11:28:54.194Z,6.95
2022-11-29T11:31:34.587Z,6.96
2022-11-29T11:34:29.356Z,7.04
2022-11-29T11:37:20.848Z,7.05
2022-11-29T11:39:50.539Z,6.81
2022-11-29T11:42:39.699Z,6.98
2022-11-29T11:45:10.066Z,7.04
2022-11-29T11:47:47.966Z,7.03
2022-11-29T11:50:25.369Z,7.04
2022-11-29T11:52:56.155Z,6.99
2022-11-29T11:55:32.257Z,6.93
2022-11-29T11:58:13.929Z,6.90
2022-11-29T12:01:04.453Z,6.82
2022-11-29T12:03:54.214Z,6.58
2022-11-29T12:06:42.104Z,6.58
2022-11-29T12:09:23.583Z,6.51
2022-11-29T12:12:04.446Z,6.46
2022-11-29T12:14:55.747Z,6.47
2022-11-29T12:17:35.678Z,6.41
2022-11-29T12:20:42.884Z,6.42
2022-11-29T12:23:12.859Z,6.47
2022-11-29T12:25:43.592Z,6.56
2022-11-29T12:28:20.293Z,6.53
2022-11-29T12:31:21.713Z,6.51
2022-11-29T12:34:04.246Z,6.49
2022-11-29T12:36:40.386Z,6.49
2022-11-29T12:39:30.268Z,6.55
2022-11-29T12:42:15.568Z,6.51
2022-11-29T12:45:10.956Z,6.50
2022-11-29T12:47:51.848Z,6.49
2022-11-29T12:50:41.293Z,6.56
2022-11-29T12:53:27.089Z,6.57
2022-11-29T12:56:07.178Z,6.64
2022-11-29T12:58:46.064Z,6.75
2022-11-29T13:01:40.294Z,6.80
2022-11-29T13:04:25.434Z,6.78
2022-11-29T13:07:01.350Z,6.78
2022-11-29T13:10:19.020Z,6.70
2022-11-29T13:12:55.853Z,6.64
2022-11-29T13:15:45.486Z,6.64
2022-11-29T13:18:43.921Z,6.63
2022-11-29T13:21:21.098Z,6.59
2022-11-29T13:24:09.705Z,6.52
2022-11-29T13:26:39.380Z,6.49
2022-11-29T13:29:08.660Z,6.48
2022-11-29T13:31:38.072Z,6.40
2022-11-29T13:34:15.133Z,6.35
2022-11-29T13:36:56.143Z,6.29
2022-11-29T13:39:58.685Z,6.21
2022-11-29T13:42:57.744Z,6.19
2022-11-29T13:45:56.171Z,6.14
2022-11-29T13:48:33.852Z,6.07
2022-11-29T13:51:26.758Z,6.01
2022-11-29T13:53:56.130Z,5.95
2022-11-29T13:56:32.249Z,5.94
2022-11-29T13:59:01.911Z,6.00
2022-11-29T14:01:29.291Z,5.95
2022-11-29T14:04:27.458Z,5.91
2022-11-29T14:07:11.393Z,5.88
2022-11-29T14:09:45.011Z,5.86
2022-11-29T14:12:19.207Z,5.83
2022-11-29T14:14:51.137Z,5.82
2022-11-29T14:17:54.258Z,5.78
2022-11-29T14:20:24.016Z,5.76
2022-11-29T14:23:06.539Z,5.78
2022-11-29T14:26:02.816Z,5.78
2022-11-29T14:28:35.193Z,5.71
2022-11-29T14:31:03.809Z,5.71
2022-11-29T14:34:02.599Z,5.68
2022-11-29T14:36:38.569Z,5.68
2022-11-29T14:39:28.179Z,5.71
2022-11-29T14:42:14.846Z,5.68
2022-11-29T14:44:51.908Z,5.67
2022-11-29T14:47:30.095Z,5.65
2022-11-29T14:49:59.601Z,5.59
2022-11-29T14:52:37.956Z,5.58
2022-11-29T14:55:08.389Z,5.57
2022-11-29T14:57:51.689Z,5.57
2022-11-29T15:00:34.973Z,5.56
2022-11-29T15:03:13.438Z,5.54
2022-11-29T15:05:46.675Z,5.58
2022-11-29T15:08:35.206Z,5.56
2022-11-29T15:11:11.675Z,5.60
2022-11-29T15:13:46.369Z,5.62
2022-11-29T15:17:01.449Z,5.58
2022-11-29T15:19:54.319Z,5.56
2022-11-29T15:22:31.619Z,5.54
2022-11-29T15:25:04.138Z,5.54
2022-11-29T15:27:32.160Z,5.50
2022-11-29T15:30:18.738Z,5.45
2022-11-29T15:32:46.600Z,5.42
2022-11-29T15:35:19.128Z,5.36
2022-11-29T15:37:49.046Z,5.39
2022-11-29T15:40:18.878Z,5.38
2022-11-29T15:42:54.825Z,5.39
2022-11-29T15:45:45.351Z,5.36
2022-11-29T15:48:17.451Z,5.33
2022-11-29T15:51:07.778Z,5.35
2022-11-29T15:53:47.515Z,5.25
2022-11-29T15:56:35.197Z,5.22
2022-11-29T15:59:24.848Z,5.15
2022-11-29T16:01:56.182Z,5.13
2022-11-29T16:04:24.611Z,5.11
2022-11-29T16:06:54.773Z,5.04
2022-11-29T16:09:33.309Z,5.09
2022-11-29T16:12:02.207Z,5.03
2022-11-29T16:14:29.798Z,5.03
2022-11-29T16:17:01.298Z,5.04
2022-11-29T16:19:37.432Z,5.02
2022-11-29T16:22:10.702Z,5.01
2022-11-29T16:24:40.727Z,4.99
2022-11-29T16:27:08.428Z,4.97
2022-11-29T16:29:38.578Z,5.01
2022-11-29T16:32:33.997Z,4.97
2022-11-29T16:35:14.177Z,4.91
2022-11-29T16:37:43.967Z,4.83
2022-11-29T16:40:27.739Z,4.86
2022-11-29T16:43:03.885Z,4.86
2022-11-29T16:45:35.494Z,4.83
2022-11-29T16:48:03.056Z,4.81
2022-11-29T16:50:33.071Z,4.83
2022-11-29T16:53:36.176Z,4.83
2022-11-29T16:56:05.173Z,4.82
2022-11-29T16:58:35.473Z,4.84
2022-11-29T17:01:27.972Z,4.84
2022-11-29T17:03:57.186Z,4.86
2022-11-29T17:06:26.141Z,4.84
2022-11-29T17:08:54.796Z,4.88
2022-11-29T17:11:22.474Z,4.84
2022-11-29T17:13:50.549Z,4.90
2022-11-29T17:16:20.313Z,4.91
2022-11-29T17:18:48.459Z,4.91
2022-11-29T17:21:26.818Z,4.93
2022-11-29T17:23:54.600Z,4.95
2022-11-29T17:26:24.056Z,4.96
2022-11-29T17:28:52.220Z,4.89
2022-11-29T17:31:24.719Z,4.96
2022-11-29T17:33:52.109Z,5.05
2022-11-29T17:36:20.809Z,5.07
2022-11-29T17:38:48.705Z,5.05
2022-11-29T17:41:23.347Z,5.04
2022-11-29T17:43:54.651Z,5.04
2022-11-29T17:46:24.731Z,5.02
2022-11-29T17:48:53.019Z,5.02
2022-11-29T17:51:50.532Z,5.03
2022-11-29T17:54:10.009Z,4.97
2022-11-29T17:56:37.401Z,4.96
2022-11-29T17:59:05.416Z,4.98
2022-11-29T18:01:34.953Z,4.98
2022-11-29T18:04:05.564Z,4.96
2022-11-29T18:06:43.306Z,4.95
2022-11-29T18:09:12.461Z,4.94
2022-11-29T18:11:47.670Z,4.88
2022-11-29T18:14:23.037Z,4.96
2022-11-29T18:16:51.074Z,4.96
2022-11-29T18:19:21.265Z,4.97
2022-11-29T18:21:49.977Z,4.92
2022-11-29T18:24:17.570Z,4.93
2022-11-29T18:26:45.180Z,4.91
2022-11-29T18:29:12.637Z,4.90
2022-11-29T18:31:42.479Z,4.87
2022-11-29T18:34:11.519Z,4.79
2022-11-29T18:36:46.308Z,4.83
2022-11-29T18:39:20.462Z,4.85
2022-11-29T18:41:50.303Z,4.87
2022-11-29T18:44:24.076Z,4.75
2022-11-29T18:46:51.581Z,4.92
2022-11-29T18:49:19.348Z,4.89
2022-11-29T18:51:48.436Z,4.88
2022-11-29T18:54:18.183Z,4.89
2022-11-29T18:56:45.962Z,4.91
2022-11-29T18:59:17.617Z,4.97
2022-11-29T19:01:48.541Z,4.99
2022-11-29T19:04:19.263Z,4.96
2022-11-29T19:06:48.250Z,4.91
2022-11-29T19:09:19.568Z,4.94
2022-11-29T19:11:49.360Z,4.93
2022-11-29T19:14:17.130Z,4.87
2022-11-29T19:16:46.953Z,4.95
2022-11-29T19:19:13.935Z,4.98
2022-11-29T19:21:42.720Z,4.95
2022-11-29T19:24:15.538Z,4.92
2022-11-29T19:26:46.359Z,4.92
2022-11-29T19:29:14.724Z,4.87
2022-11-29T19:31:42.850Z,4.92
2022-11-29T19:34:13.478Z,4.88
2022-11-29T19:36:46.411Z,4.84
2022-11-29T19:39:16.335Z,4.86
2022-11-29T19:41:47.124Z,4.85
2022-11-29T19:44:15.130Z,4.77
2022-11-29T19:46:46.068Z,4.87
2022-11-29T19:49:13.379Z,4.90
2022-11-29T19:51:41.521Z,4.86
2022-11-29T19:54:10.139Z,4.86
2022-11-29T19:56:38.968Z,4.89
2022-11-29T19:59:07.694Z,4.85
2022-11-29T20:01:43.675Z,4.87
2022-11-29T20:04:13.900Z,4.84
2022-11-29T20:06:43.047Z,4.83
2022-11-29T20:09:14.156Z,4.79
2022-11-29T20:11:41.824Z,4.80
2022-11-29T20:14:11.974Z,4.78
2022-11-29T20:16:39.407Z,4.77
2022-11-29T20:19:15.648Z,4.80
2022-11-29T20:21:48.886Z,4.82
2022-11-29T20:24:17.867Z,4.88
2022-11-29T20:26:47.650Z,4.82
2022-11-29T20:29:14.828Z,4.88
2022-11-29T20:31:49.630Z,4.88
2022-11-29T20:34:18.920Z,4.86
2022-11-29T20:37:07.547Z,4.88
2022-11-29T20:39:43.409Z,4.89
2022-11-29T20:42:47.102Z,4.90
2022-11-29T20:45:16.428Z,4.90
2022-11-29T20:47:50.213Z,4.86
2022-11-29T20:50:22.900Z,4.83
2022-11-29T20:52:57.528Z,4.85
2022-11-29T20:55:25.800Z,4.81
2022-11-29T20:57:54.409Z,4.75
2022-11-29T21:00:22.391Z,4.85
2022-11-29T21:02:50.028Z,4.88
2022-11-29T21:05:17.164Z,4.89
2022-11-29T21:07:45.966Z,4.82
2022-11-29T21:10:15.601Z,4.84
2022-11-29T21:12:45.809Z,4.84
2022-11-29T21:15:14.376Z,4.84
2022-11-29T21:17:42.579Z,4.87
2022-11-29T21:20:18.401Z,4.87
2022-11-29T21:22:54.459Z,4.86
2022-11-29T21:25:41.499Z,4.87
2022-11-29T21:28:12.437Z,4.90
2022-11-29T21:30:59.806Z,4.88
2022-11-29T21:33:27.482Z,4.88
2022-11-29T21:35:58.214Z,4.92
2022-11-29T21:38:27.663Z,4.95
2022-11-29T21:40:54.699Z,4.92
2022-11-29T21:43:28.751Z,4.89
2022-11-29T21:46:08.903Z,4.82
2022-11-29T21:48:36.133Z,4.85
2022-11-29T21:51:08.750Z,4.79
2022-11-29T21:53:37.297Z,4.72
2022-11-29T21:56:09.970Z,4.73
2022-11-29T21:58:38.518Z,4.72
2022-11-29T22:01:15.459Z,4.71
2022-11-29T22:03:42.848Z,4.60
2022-11-29T22:06:20.851Z,4.63
2022-11-29T22:08:48.758Z,4.60
2022-11-29T22:11:30.928Z,4.59
2022-11-29T22:14:14.874Z,4.65
2022-11-29T22:16:54.472Z,4.64
2022-11-29T22:19:26.659Z,4.60
2022-11-29T22:21:57.367Z,4.65
2022-11-29T22:24:26.669Z,4.63
2022-11-29T22:26:54.377Z,4.51
2022-11-29T22:29:22.221Z,4.56
2022-11-29T22:31:53.187Z,4.51
2022-11-29T22:34:21.342Z,4.55
2022-11-29T22:36:48.370Z,4.54
2022-11-29T22:39:15.423Z,4.45
2022-11-29T22:41:42.582Z,4.52
2022-11-29T22:44:09.969Z,4.44
2022-11-29T22:46:40.453Z,4.52
2022-11-29T22:49:07.703Z,4.53
2022-11-29T22:51:37.432Z,4.46
2022-11-29T22:54:07.685Z,4.47
2022-11-29T22:56:38.252Z,4.44
2022-11-29T22:59:05.964Z,4.46
2022-11-29T23:01:35.399Z,4.44
2022-11-29T23:04:06.136Z,4.40
2022-11-29T23:06:39.397Z,4.41
2022-11-29T23:09:15.580Z,4.44
2022-11-29T23:11:46.519Z,4.40
2022-11-29T23:14:13.615Z,4.42
2022-11-29T23:16:40.794Z,4.26
2022-11-29T23:19:07.871Z,4.31
2022-11-29T23:21:37.758Z,4.31
2022-11-29T23:24:04.898Z,4.36
2022-11-29T23:26:39.862Z,4.28
2022-11-29T23:29:09.377Z,4.41
2022-11-29T23:31:36.286Z,4.36
2022-11-29T23:34:03.850Z,4.35
2022-11-29T23:36:30.729Z,4.37
2022-11-29T23:38:57.712Z,4.35
2022-11-29T23:41:24.716Z,4.34
2022-11-29T23:43:51.914Z,4.33
2022-11-29T23:46:20.995Z,4.29
2022-11-29T23:48:48.819Z,4.27
2022-11-29T23:51:16.500Z,4.27
2022-11-29T23:53:43.958Z,4.26
2022-11-29T23:56:16.747Z,4.21
2022-11-29T23:58:45.103Z,4.24
